Terminal Aerodrome Forecast
Issued by NWS Jackson, MS

Home | Current Version | Previous Version | Text Only | Print | Product List | Glossary On
Versions: 1 2 3 4 5 6 7 8 9 10 11 12 13 14
000
FTUS44 KJAN 291957 AAB
TAFJAN
TAF AMD
KJAN 291957Z 2920/3018 20010G19KT P6SM FEW030
     FM300000 17009KT P6SM FEW030 SCT100
     FM300800 20007KT P6SM VCSH BKN019
     FM301400 30008KT P6SM VCSH BKN025=

USA.gov is the U.S. government's official web portal to all federal, state and local government web resources and services.